createdAt,value
2019-03-03T00:00:51.490Z,55.13
2019-03-03T00:03:21.017Z,56.23
2019-03-03T00:05:50.633Z,57.60
2019-03-03T00:08:20.162Z,55.27
2019-03-03T00:10:49.728Z,55.07
2019-03-03T00:13:19.337Z,58.33
2019-03-03T00:15:48.900Z,51.53
2019-03-03T00:18:18.433Z,56.03
2019-03-03T00:21:05.537Z,53.87
2019-03-03T00:23:36.726Z,51.10
2019-03-03T00:26:06.230Z,53.37
2019-03-03T00:28:35.777Z,50.20
2019-03-03T00:31:05.346Z,50.20
2019-03-03T00:33:35.970Z,51.53
2019-03-03T00:36:05.472Z,50.60
2019-03-03T00:38:37.258Z,52.83
2019-03-03T00:41:11.245Z,49.90
2019-03-03T00:43:42.442Z,49.37
2019-03-03T00:46:29.938Z,49.43
2019-03-03T00:49:03.829Z,50.80
2019-03-03T00:51:40.573Z,50.47
2019-03-03T00:54:14.501Z,45.97
2019-03-03T00:56:48.837Z,46.93
2019-03-03T00:59:22.737Z,48.57
2019-03-03T01:01:59.661Z,45.97
2019-03-03T01:04:36.763Z,47.57
2019-03-03T01:07:24.251Z,48.63
2019-03-03T01:10:04.417Z,50.43
2019-03-03T01:12:51.544Z,48.00
2019-03-03T01:15:22.797Z,49.00
2019-03-03T01:17:56.673Z,49.57
2019-03-03T01:20:30.623Z,47.17
2019-03-03T01:23:10.858Z,46.53
2019-03-03T01:25:40.886Z,47.67
2019-03-03T01:28:10.378Z,48.37
2019-03-03T01:30:39.974Z,49.60
2019-03-03T01:33:09.510Z,48.30
2019-03-03T01:35:39.044Z,50.23
2019-03-03T01:38:09.892Z,44.47
2019-03-03T01:40:39.394Z,51.40
2019-03-03T01:43:08.930Z,47.87
2019-03-03T01:45:38.489Z,47.57
2019-03-03T01:48:08.023Z,45.13
2019-03-03T01:50:37.523Z,47.07
2019-03-03T01:53:07.049Z,47.60
2019-03-03T01:55:36.578Z,45.07
2019-03-03T01:58:06.105Z,43.70
2019-03-03T02:00:35.665Z,41.80
2019-03-03T02:03:06.038Z,46.50
2019-03-03T02:05:35.529Z,45.93
2019-03-03T02:08:05.427Z,46.30
2019-03-03T02:10:35.028Z,45.27
2019-03-03T02:13:04.593Z,44.47
2019-03-03T02:15:34.126Z,43.80
2019-03-03T02:18:03.615Z,43.43
2019-03-03T02:20:33.148Z,44.30
2019-03-03T02:23:02.637Z,46.23
2019-03-03T02:25:32.242Z,49.37
2019-03-03T02:28:01.738Z,47.43
2019-03-03T02:30:31.327Z,42.80
2019-03-03T02:33:00.763Z,43.57
2019-03-03T02:35:30.323Z,42.07
2019-03-03T02:37:59.817Z,43.17
2019-03-03T02:40:29.388Z,46.23
2019-03-03T02:42:58.837Z,43.47
2019-03-03T02:45:28.458Z,44.57
2019-03-03T02:47:57.965Z,47.87
2019-03-03T02:50:27.506Z,45.70
2019-03-03T02:52:56.993Z,42.60
2019-03-03T02:55:26.525Z,46.27
2019-03-03T02:57:56.016Z,45.83
2019-03-03T03:00:25.617Z,45.27
2019-03-03T03:02:56.762Z,43.80
2019-03-03T03:05:44.933Z,48.60
2019-03-03T03:08:16.057Z,48.13
2019-03-03T03:10:53.198Z,48.17
2019-03-03T03:13:40.635Z,47.80
2019-03-03T03:16:17.753Z,45.20
2019-03-03T03:19:03.959Z,46.53
2019-03-03T03:21:44.162Z,49.03
2019-03-03T03:24:18.271Z,48.43
2019-03-03T03:26:52.418Z,46.20
2019-03-03T03:29:26.553Z,47.87
2019-03-03T03:32:03.598Z,47.20
2019-03-03T03:34:34.723Z,47.57
2019-03-03T03:37:05.890Z,50.30
2019-03-03T03:39:37.593Z,49.10
2019-03-03T03:42:20.725Z,50.33
2019-03-03T03:44:57.372Z,49.83
2019-03-03T03:47:28.570Z,47.53
2019-03-03T03:49:59.706Z,50.50
2019-03-03T03:52:30.885Z,50.37
2019-03-03T03:55:16.942Z,50.17
2019-03-03T03:57:48.128Z,49.70
2019-03-03T04:00:32.218Z,48.67
2019-03-03T04:03:19.466Z,49.73
2019-03-03T04:05:53.419Z,50.47
2019-03-03T04:08:30.562Z,48.40
2019-03-03T04:11:01.700Z,48.13
2019-03-03T04:13:32.874Z,46.13
2019-03-03T04:16:20.011Z,49.00
2019-03-03T04:18:54.292Z,50.33
2019-03-03T04:21:36.971Z,44.50
2019-03-03T04:24:17.111Z,48.47
2019-03-03T04:26:57.001Z,45.40
2019-03-03T04:29:34.018Z,46.03
2019-03-03T04:32:11.009Z,47.30
2019-03-03T04:35:00.069Z,45.63
2019-03-03T04:37:31.205Z,47.40
2019-03-03T04:40:04.841Z,44.27
2019-03-03T04:42:35.968Z,47.07
2019-03-03T04:45:14.556Z,46.07
2019-03-03T04:48:01.980Z,45.03
2019-03-03T04:50:35.870Z,46.83
2019-03-03T04:53:23.011Z,40.60
2019-03-03T04:56:09.286Z,44.67
2019-03-03T04:58:58.369Z,44.33
2019-03-03T05:01:29.574Z,44.13
2019-03-03T05:04:06.412Z,45.33
2019-03-03T05:06:43.571Z,46.27
2019-03-03T05:09:26.881Z,48.97
2019-03-03T05:12:09.869Z,44.43
2019-03-03T05:14:43.745Z,48.77
2019-03-03T05:17:22.777Z,47.67
2019-03-03T05:19:53.905Z,46.97
2019-03-03T05:22:23.466Z,50.47
2019-03-03T05:24:53.121Z,46.33
2019-03-03T05:27:22.665Z,45.00
2019-03-03T05:29:52.217Z,45.80
2019-03-03T05:32:21.697Z,47.00
2019-03-03T05:34:53.151Z,43.20
2019-03-03T05:37:22.671Z,41.77
2019-03-03T05:39:52.202Z,48.73
2019-03-03T05:42:21.686Z,46.77
2019-03-03T05:44:53.331Z,44.50
2019-03-03T05:47:22.870Z,43.20
2019-03-03T05:49:52.414Z,47.03
2019-03-03T05:52:21.921Z,43.77
2019-03-03T05:54:51.830Z,45.30
2019-03-03T05:57:21.365Z,44.23
2019-03-03T05:59:50.906Z,42.67
2019-03-03T06:02:20.405Z,44.57
2019-03-03T06:04:51.818Z,43.50
2019-03-03T06:07:21.314Z,44.13
2019-03-03T06:09:50.845Z,34.00
2019-03-03T06:12:20.385Z,44.60
2019-03-03T06:14:51.881Z,47.57
2019-03-03T06:17:21.463Z,44.40
2019-03-03T06:19:50.958Z,42.97
2019-03-03T06:22:20.538Z,44.23
2019-03-03T06:24:50.113Z,42.03
2019-03-03T06:27:19.704Z,44.03
2019-03-03T06:29:49.194Z,44.27
2019-03-03T06:32:18.790Z,45.50
2019-03-03T06:34:48.285Z,45.97
2019-03-03T06:37:17.818Z,43.77
2019-03-03T06:39:47.308Z,44.30
2019-03-03T06:42:16.842Z,40.77
2019-03-03T06:44:46.323Z,42.63
2019-03-03T06:47:15.849Z,40.53
2019-03-03T06:49:45.598Z,39.10
2019-03-03T06:52:15.136Z,42.97
2019-03-03T06:54:44.666Z,39.17
2019-03-03T06:57:14.722Z,37.53
2019-03-03T06:59:44.216Z,42.27
2019-03-03T07:02:13.745Z,42.67
2019-03-03T07:04:43.234Z,41.67
2019-03-03T07:07:12.760Z,39.80
2019-03-03T07:09:42.250Z,37.47
2019-03-03T07:12:11.798Z,39.83
2019-03-03T07:14:41.286Z,38.30
2019-03-03T07:17:10.867Z,39.63
2019-03-03T07:19:40.372Z,40.43
2019-03-03T07:22:09.918Z,38.83
2019-03-03T07:24:39.446Z,43.07
2019-03-03T07:27:08.985Z,41.30
2019-03-03T07:29:38.474Z,33.00
2019-03-03T07:32:08.695Z,41.67
2019-03-03T07:34:38.191Z,39.20
2019-03-03T07:37:07.752Z,39.23
2019-03-03T07:39:37.246Z,38.30
2019-03-03T07:42:08.631Z,40.23
2019-03-03T07:44:38.117Z,44.43
2019-03-03T07:47:07.649Z,40.50
2019-03-03T07:49:37.143Z,40.93
2019-03-03T07:52:06.687Z,39.17
2019-03-03T07:54:36.184Z,43.37
2019-03-03T07:57:05.706Z,41.60
2019-03-03T07:59:35.202Z,41.20
2019-03-03T08:02:05.770Z,37.00
2019-03-03T08:04:35.253Z,36.53
2019-03-03T08:07:04.778Z,34.60
2019-03-03T08:09:34.277Z,35.63
2019-03-03T08:12:03.800Z,37.00
2019-03-03T08:14:33.338Z,35.87
2019-03-03T08:17:02.857Z,36.70
2019-03-03T08:19:32.345Z,34.80
2019-03-03T08:22:01.870Z,39.10
2019-03-03T08:24:31.431Z,36.30
2019-03-03T08:27:00.974Z,40.33
2019-03-03T08:29:30.534Z,35.50
2019-03-03T08:32:00.067Z,37.57
2019-03-03T08:34:29.572Z,38.97
2019-03-03T08:37:00.279Z,36.27
2019-03-03T08:39:29.893Z,39.67
2019-03-03T08:42:01.067Z,37.30
2019-03-03T08:44:32.258Z,38.53
2019-03-03T08:47:09.627Z,38.90
2019-03-03T08:49:43.774Z,43.40
2019-03-03T08:52:14.962Z,39.60
2019-03-03T08:54:51.945Z,40.83
2019-03-03T08:57:41.063Z,41.33
2019-03-03T09:00:15.194Z,42.07
2019-03-03T09:02:49.122Z,40.97
2019-03-03T09:05:23.230Z,40.43
2019-03-03T09:08:03.493Z,41.30
2019-03-03T09:10:52.766Z,43.07
2019-03-03T09:13:23.969Z,42.10
2019-03-03T09:16:13.234Z,38.83
2019-03-03T09:19:00.218Z,42.03
2019-03-03T09:21:32.324Z,44.40
2019-03-03T09:24:19.517Z,42.53
2019-03-03T09:27:07.312Z,43.50
2019-03-03T09:29:47.287Z,43.73
2019-03-03T09:32:33.578Z,41.83
2019-03-03T09:35:07.677Z,41.00
2019-03-03T09:37:38.809Z,43.47
2019-03-03T09:40:13.991Z,40.93
2019-03-03T09:42:47.845Z,41.70
2019-03-03T09:45:25.014Z,40.63
2019-03-03T09:48:14.354Z,39.23
2019-03-03T09:50:48.486Z,33.73
2019-03-03T09:53:19.574Z,41.87
2019-03-03T09:56:02.546Z,40.60
2019-03-03T09:58:42.482Z,37.70
2019-03-03T10:01:28.780Z,34.57
2019-03-03T10:04:02.646Z,35.77
2019-03-03T10:06:36.818Z,37.97
2019-03-03T10:09:10.986Z,38.03
2019-03-03T10:11:48.073Z,35.87
2019-03-03T10:14:37.947Z,36.40
2019-03-03T10:17:12.062Z,36.23
2019-03-03T10:19:49.349Z,37.80
2019-03-03T10:22:36.866Z,37.53
2019-03-03T10:25:27.302Z,36.27
2019-03-03T10:27:58.797Z,35.10
2019-03-03T10:30:38.956Z,38.17
2019-03-03T10:33:22.570Z,33.63
2019-03-03T10:36:10.196Z,36.40
2019-03-03T10:38:41.374Z,35.40
2019-03-03T10:41:28.574Z,35.17
2019-03-03T10:44:08.794Z,36.23
2019-03-03T10:46:51.665Z,37.10
2019-03-03T10:49:22.845Z,34.17
2019-03-03T10:51:53.988Z,35.10
2019-03-03T10:54:31.165Z,34.83
2019-03-03T10:57:17.162Z,33.50
2019-03-03T10:59:54.926Z,35.60
2019-03-03T11:02:36.134Z,33.93
2019-03-03T11:05:23.806Z,34.13
2019-03-03T11:07:57.741Z,35.23
2019-03-03T11:10:28.929Z,32.77
2019-03-03T11:13:16.049Z,33.97
2019-03-03T11:15:58.831Z,31.43
2019-03-03T11:18:41.621Z,30.53
2019-03-03T11:21:12.942Z,31.50
2019-03-03T11:24:00.082Z,30.97
2019-03-03T11:26:47.626Z,32.20
2019-03-03T11:29:34.547Z,30.80
2019-03-03T11:32:05.890Z,31.30
2019-03-03T11:34:46.066Z,28.50
2019-03-03T11:37:20.254Z,28.80
2019-03-03T11:40:00.361Z,30.43
2019-03-03T11:42:37.409Z,29.33
2019-03-03T11:45:16.859Z,27.70
2019-03-03T11:48:06.362Z,28.53
2019-03-03T11:50:49.760Z,29.40
2019-03-03T11:53:20.945Z,26.50
2019-03-03T11:56:08.122Z,29.13
2019-03-03T11:58:39.369Z,28.57
2019-03-03T12:01:23.018Z,27.80
2019-03-03T12:03:57.331Z,25.93
2019-03-03T12:06:34.545Z,25.80
2019-03-03T12:09:13.360Z,27.87
2019-03-03T12:11:44.561Z,24.63
2019-03-03T12:14:21.701Z,24.57
2019-03-03T12:16:52.887Z,25.00
2019-03-03T12:19:32.880Z,22.10
2019-03-03T12:22:04.020Z,25.53
2019-03-03T12:24:41.470Z,26.10
2019-03-03T12:27:29.066Z,22.13
2019-03-03T12:30:02.595Z,22.63
2019-03-03T12:32:37.013Z,24.70
2019-03-03T12:35:12.926Z,25.63
2019-03-03T12:37:59.155Z,23.10
2019-03-03T12:40:30.338Z,23.97
2019-03-03T12:43:01.484Z,22.83
2019-03-03T12:45:32.650Z,25.17
2019-03-03T12:48:15.643Z,23.20
2019-03-03T12:50:49.622Z,24.67
2019-03-03T12:53:26.518Z,23.33
2019-03-03T12:56:00.354Z,24.37
2019-03-03T12:58:34.225Z,23.43
2019-03-03T13:01:23.727Z,25.33
2019-03-03T13:03:54.289Z,18.83
2019-03-03T13:06:43.744Z,21.33
2019-03-03T13:09:27.173Z,18.40
2019-03-03T13:11:58.354Z,22.33
2019-03-03T13:14:32.041Z,24.17
2019-03-03T13:17:21.861Z,24.00
2019-03-03T13:19:52.989Z,21.47
2019-03-03T13:22:33.713Z,21.33
2019-03-03T13:25:04.850Z,19.47
2019-03-03T13:27:38.974Z,20.73
2019-03-03T13:30:16.210Z,20.67
2019-03-03T13:32:50.354Z,20.63
2019-03-03T13:35:21.482Z,17.70
2019-03-03T13:37:55.329Z,19.70
2019-03-03T13:40:32.477Z,19.23
2019-03-03T13:43:02.047Z,19.77
2019-03-03T13:45:32.173Z,19.03
2019-03-03T13:48:01.706Z,17.80
2019-03-03T13:50:31.383Z,19.17
2019-03-03T13:53:00.942Z,16.43
2019-03-03T13:55:30.615Z,16.73
2019-03-03T13:58:01.135Z,17.17
2019-03-03T14:00:30.813Z,14.73
2019-03-03T14:03:00.371Z,17.17
2019-03-03T14:05:29.914Z,18.10
2019-03-03T14:07:59.578Z,13.93
2019-03-03T14:10:29.186Z,15.93
2019-03-03T14:12:58.750Z,18.43
2019-03-03T14:15:28.326Z,16.53
2019-03-03T14:17:58.204Z,16.07
2019-03-03T14:20:27.767Z,15.63
2019-03-03T14:22:57.298Z,16.53
2019-03-03T14:25:26.877Z,14.80
2019-03-03T14:27:56.485Z,14.20
2019-03-03T14:30:27.620Z,15.27
2019-03-03T14:32:57.332Z,14.53
2019-03-03T14:35:26.826Z,13.80
2019-03-03T14:37:56.445Z,15.30
2019-03-03T14:40:25.962Z,13.33
2019-03-03T14:42:55.502Z,14.20
2019-03-03T14:45:25.278Z,14.20
2019-03-03T14:47:54.884Z,14.97
2019-03-03T14:50:24.443Z,15.00
2019-03-03T14:52:56.213Z,14.27
2019-03-03T14:55:25.777Z,14.37
2019-03-03T14:57:55.301Z,14.90
2019-03-03T15:00:30.054Z,16.90
2019-03-03T15:03:01.289Z,15.37
2019-03-03T15:05:31.114Z,15.57
2019-03-03T15:08:00.721Z,16.30
2019-03-03T15:10:30.218Z,19.23
2019-03-03T15:13:00.082Z,17.60
2019-03-03T15:15:34.722Z,17.67
2019-03-03T15:18:04.578Z,17.83
2019-03-03T15:20:34.306Z,16.67
2019-03-03T15:23:04.150Z,18.13
2019-03-03T15:25:34.946Z,21.40
2019-03-03T15:28:07.253Z,18.10
2019-03-03T15:30:36.742Z,16.23
2019-03-03T15:33:06.411Z,17.67
2019-03-03T15:35:40.791Z,17.30
2019-03-03T15:38:10.480Z,22.07
2019-03-03T15:40:41.049Z,20.53
2019-03-03T15:43:10.580Z,22.37
2019-03-03T15:45:40.094Z,15.53
2019-03-03T15:48:09.638Z,18.33
2019-03-03T15:50:39.219Z,18.87
2019-03-03T15:53:08.986Z,22.13
2019-03-03T15:55:38.820Z,23.57
2019-03-03T15:58:08.974Z,21.00
2019-03-03T16:00:42.894Z,24.90
2019-03-03T16:03:12.511Z,30.20
2019-03-03T16:05:42.300Z,30.80
2019-03-03T16:08:12.197Z,24.13
2019-03-03T16:10:41.750Z,22.13
2019-03-03T16:13:11.283Z,25.47
2019-03-03T16:15:40.777Z,20.90
2019-03-03T16:18:10.482Z,24.57
2019-03-03T16:20:39.985Z,18.90
2019-03-03T16:23:10.684Z,20.73
2019-03-03T16:25:40.389Z,29.40
2019-03-03T16:28:10.001Z,23.10
2019-03-03T16:30:39.486Z,28.00
2019-03-03T16:33:09.089Z,19.60
2019-03-03T16:35:38.577Z,17.43
2019-03-03T16:38:08.537Z,18.03
2019-03-03T16:40:39.785Z,20.73
2019-03-03T16:43:09.213Z,17.20
2019-03-03T16:45:38.702Z,19.37
2019-03-03T16:48:08.237Z,17.57
2019-03-03T16:50:37.721Z,20.23
2019-03-03T16:53:07.262Z,19.20
2019-03-03T16:55:36.817Z,18.67
2019-03-03T16:58:06.426Z,17.17
2019-03-03T17:00:36.078Z,19.30
2019-03-03T17:03:05.688Z,19.93
2019-03-03T17:05:35.170Z,21.00
2019-03-03T17:08:04.788Z,18.30
2019-03-03T17:10:35.694Z,21.30
2019-03-03T17:13:05.369Z,18.30
2019-03-03T17:15:34.958Z,18.17
2019-03-03T17:18:06.907Z,18.63
2019-03-03T17:20:37.359Z,20.57
2019-03-03T17:23:07.073Z,24.63
2019-03-03T17:25:36.598Z,17.30
2019-03-03T17:28:06.197Z,27.33
2019-03-03T17:30:35.822Z,29.90
2019-03-03T17:33:05.350Z,64.43
2019-03-03T17:35:34.894Z,24.57
2019-03-03T17:38:04.433Z,20.13
2019-03-03T17:40:33.977Z,20.50
2019-03-03T17:43:03.470Z,21.47
2019-03-03T17:45:33.013Z,20.90
2019-03-03T17:48:05.521Z,20.23
2019-03-03T17:50:35.065Z,20.43
2019-03-03T17:53:04.558Z,21.23
2019-03-03T17:55:34.157Z,18.70
2019-03-03T17:58:03.676Z,30.80
2019-03-03T18:00:42.281Z,19.33
2019-03-03T18:03:11.766Z,24.43
2019-03-03T18:05:45.667Z,21.87
2019-03-03T18:08:15.214Z,22.97
2019-03-03T18:10:44.937Z,19.77
2019-03-03T18:13:14.438Z,18.63
2019-03-03T18:15:44.221Z,15.97
2019-03-03T18:18:13.766Z,17.53
2019-03-03T18:20:43.299Z,26.50
2019-03-03T18:23:12.863Z,23.00
2019-03-03T18:25:42.434Z,16.53
2019-03-03T18:28:11.962Z,19.23
2019-03-03T18:30:41.498Z,24.87
2019-03-03T18:33:11.012Z,19.47
2019-03-03T18:35:40.556Z,24.80
2019-03-03T18:38:12.858Z,27.63
2019-03-03T18:40:42.414Z,20.97
2019-03-03T18:43:12.280Z,21.30
2019-03-03T18:45:42.075Z,28.93
2019-03-03T18:48:11.570Z,47.20
2019-03-03T18:50:58.761Z,31.23
2019-03-03T18:53:33.946Z,22.07
2019-03-03T18:59:08.887Z,24.30
2019-03-03T19:01:39.993Z,24.20
2019-03-03T19:04:09.482Z,27.93
2019-03-03T19:06:40.034Z,32.20
2019-03-03T19:09:11.984Z,26.20
2019-03-03T19:11:42.600Z,25.70
2019-03-03T19:14:13.819Z,25.13
2019-03-03T19:16:43.363Z,24.17
2019-03-03T19:19:12.904Z,24.03
2019-03-03T19:21:42.489Z,18.87
2019-03-03T19:24:11.982Z,38.23
2019-03-03T19:26:41.197Z,21.80
2019-03-03T19:29:10.623Z,36.40
2019-03-03T19:31:40.340Z,25.47
2019-03-03T19:34:12.842Z,28.57
2019-03-03T19:36:42.452Z,26.07
2019-03-03T19:39:12.097Z,25.67
2019-03-03T19:41:44.278Z,24.90
2019-03-03T19:44:13.773Z,23.50
2019-03-03T19:46:44.556Z,32.63
2019-03-03T19:49:15.681Z,20.63
2019-03-03T19:51:45.026Z,27.93
2019-03-03T19:54:14.443Z,26.90
2019-03-03T19:56:45.026Z,26.67
2019-03-03T19:59:14.596Z,21.83
2019-03-03T20:01:44.121Z,25.67
2019-03-03T20:04:13.649Z,34.97
2019-03-03T20:06:43.150Z,25.80
2019-03-03T20:09:14.985Z,25.83
2019-03-03T20:11:47.019Z,28.23
2019-03-03T20:14:19.056Z,30.60
2019-03-03T20:16:48.546Z,29.67
2019-03-03T20:19:18.127Z,32.23
2019-03-03T20:21:47.661Z,22.97
2019-03-03T20:24:17.202Z,26.17
2019-03-03T20:26:47.233Z,35.10
2019-03-03T20:29:16.794Z,27.47
2019-03-03T20:31:49.350Z,35.73
2019-03-03T20:34:21.784Z,29.07
2019-03-03T20:36:52.899Z,28.80
2019-03-03T20:39:22.381Z,27.87
2019-03-03T20:41:51.957Z,30.87
2019-03-03T20:44:21.534Z,25.00
2019-03-03T20:46:51.089Z,35.13
2019-03-03T20:49:20.638Z,34.03
2019-03-03T20:51:50.118Z,34.23
2019-03-03T20:54:19.681Z,27.23
2019-03-03T20:56:49.183Z,23.10
2019-03-03T20:59:18.744Z,29.73
2019-03-03T21:01:48.245Z,30.00
2019-03-03T21:04:17.790Z,25.20
2019-03-03T21:06:47.292Z,29.37
2019-03-03T21:09:19.602Z,25.40
2019-03-03T21:11:49.085Z,29.53
2019-03-03T21:14:18.622Z,32.23
2019-03-03T21:16:48.586Z,33.80
2019-03-03T21:19:18.074Z,27.30
2019-03-03T21:21:47.618Z,25.90
2019-03-03T21:24:17.120Z,23.33
2019-03-03T21:26:46.658Z,23.10
2019-03-03T21:29:20.374Z,25.40
2019-03-03T21:31:50.238Z,33.87
2019-03-03T21:34:20.353Z,29.07
2019-03-03T21:36:49.900Z,26.90
2019-03-03T21:39:19.426Z,24.27
2019-03-03T21:41:48.921Z,25.73
2019-03-03T21:44:20.138Z,25.87
2019-03-03T21:46:51.714Z,25.33
2019-03-03T21:49:20.886Z,24.30
2019-03-03T21:51:50.379Z,25.37
2019-03-03T21:54:19.987Z,22.70
2019-03-03T21:56:50.094Z,25.53
2019-03-03T21:59:19.645Z,23.87
2019-03-03T22:01:49.446Z,23.50
2019-03-03T22:04:18.890Z,24.67
2019-03-03T22:06:48.439Z,24.67
2019-03-03T22:09:17.922Z,24.20
2019-03-03T22:11:49.102Z,21.40
2019-03-03T22:14:18.602Z,23.13
2019-03-03T22:16:50.388Z,22.90
2019-03-03T22:19:19.288Z,22.77
2019-03-03T22:21:48.850Z,20.77
2019-03-03T22:24:18.333Z,22.93
2019-03-03T22:26:47.861Z,21.60
2019-03-03T22:29:17.385Z,23.50
2019-03-03T22:31:46.902Z,21.20
2019-03-03T22:34:16.438Z,22.47
2019-03-03T22:36:45.934Z,22.80
2019-03-03T22:39:15.657Z,22.50
2019-03-03T22:41:45.187Z,22.33
2019-03-03T22:44:14.749Z,22.30
2019-03-03T22:46:44.246Z,20.53
2019-03-03T22:49:13.944Z,21.10
2019-03-03T22:51:43.454Z,22.70
2019-03-03T22:54:13.851Z,21.13
2019-03-03T22:56:43.397Z,19.27
2019-03-03T22:59:12.898Z,19.63
2019-03-03T23:01:42.685Z,20.63
2019-03-03T23:04:27.297Z,19.77
2019-03-03T23:07:05.706Z,20.70
2019-03-03T23:10:08.332Z,21.63
2019-03-03T23:12:57.463Z,20.87
2019-03-03T23:15:49.241Z,20.73
2019-03-03T23:18:27.879Z,20.53
2019-03-03T23:21:12.119Z,19.83
2019-03-03T23:24:17.661Z,21.60
2019-03-03T23:26:47.155Z,21.13
2019-03-03T23:29:16.705Z,20.10
2019-03-03T23:31:46.424Z,19.53
2019-03-03T23:34:15.971Z,20.73
2019-03-03T23:36:45.465Z,18.73
2019-03-03T23:39:15.010Z,22.07
2019-03-03T23:41:44.685Z,19.40
2019-03-03T23:44:14.247Z,19.63
2019-03-03T23:46:44.173Z,21.40
2019-03-03T23:49:17.082Z,18.73
2019-03-03T23:51:46.613Z,21.07
2019-03-03T23:54:16.978Z,19.20
2019-03-03T23:56:46.505Z,20.07
2019-03-03T23:59:16.333Z,20.20
